sensor_id;sensor_type;location;lat;lon;timestamp;temperature;humidity
22145;DHT22;11238;48.730;11.566;2022-11-10T00:00:29;11.10;99.90
22145;DHT22;11238;48.730;11.566;2022-11-10T00:03:13;11.10;99.90
22145;DHT22;11238;48.730;11.566;2022-11-10T00:06:01;11.20;99.90
22145;DHT22;11238;48.730;11.566;2022-11-10T00:08:46;11.20;99.90
22145;DHT22;11238;48.730;11.566;2022-11-10T00:11:31;11.20;99.90
22145;DHT22;11238;48.730;11.566;2022-11-10T00:14:16;11.20;99.90
22145;DHT22;11238;48.730;11.566;2022-11-10T00:17:19;11.20;99.90
22145;DHT22;11238;48.730;11.566;2022-11-10T00:20:04;11.20;99.90
22145;DHT22;11238;48.730;11.566;2022-11-10T00:22:49;11.20;99.90
22145;DHT22;11238;48.730;11.566;2022-11-10T00:25:33;11.20;99.90
22145;DHT22;11238;48.730;11.566;2022-11-10T00:28:18;11.20;99.90
22145;DHT22;11238;48.730;11.566;2022-11-10T00:31:04;11.20;99.90
22145;DHT22;11238;48.730;11.566;2022-11-10T00:33:50;11.20;99.90
22145;DHT22;11238;48.730;11.566;2022-11-10T00:36:34;11.30;99.90
22145;DHT22;11238;48.730;11.566;2022-11-10T00:39:19;11.30;99.90
22145;DHT22;11238;48.730;11.566;2022-11-10T00:42:03;11.20;99.90
22145;DHT22;11238;48.730;11.566;2022-11-10T00:44:48;11.30;99.90
22145;DHT22;11238;48.730;11.566;2022-11-10T00:47:32;11.20;99.90
22145;DHT22;11238;48.730;11.566;2022-11-10T00:50:17;11.20;99.90
22145;DHT22;11238;48.730;11.566;2022-11-10T00:53:01;11.20;99.90
22145;DHT22;11238;48.730;11.566;2022-11-10T00:55:46;11.20;99.90
22145;DHT22;11238;48.730;11.566;2022-11-10T00:58:32;11.20;99.90
22145;DHT22;11238;48.730;11.566;2022-11-10T01:01:20;11.20;99.90
22145;DHT22;11238;48.730;11.566;2022-11-10T01:04:05;11.20;99.90
22145;DHT22;11238;48.730;11.566;2022-11-10T01:06:50;11.00;99.90
22145;DHT22;11238;48.730;11.566;2022-11-10T01:09:35;11.00;99.90
22145;DHT22;11238;48.730;11.566;2022-11-10T01:12:20;10.90;99.90
22145;DHT22;11238;48.730;11.566;2022-11-10T01:15:05;10.90;99.90
22145;DHT22;11238;48.730;11.566;2022-11-10T01:17:51;10.90;99.90
22145;DHT22;11238;48.730;11.566;2022-11-10T01:20:35;10.80;99.90
22145;DHT22;11238;48.730;11.566;2022-11-10T01:23:19;10.80;99.90
22145;DHT22;11238;48.730;11.566;2022-11-10T01:26:05;10.80;99.90
22145;DHT22;11238;48.730;11.566;2022-11-10T01:28:49;10.80;99.90
22145;DHT22;11238;48.730;11.566;2022-11-10T01:31:33;10.80;99.90
22145;DHT22;11238;48.730;11.566;2022-11-10T01:34:17;10.90;99.90
22145;DHT22;11238;48.730;11.566;2022-11-10T01:37:02;10.90;99.90
22145;DHT22;11238;48.730;11.566;2022-11-10T01:39:46;10.90;99.90
22145;DHT22;11238;48.730;11.566;2022-11-10T01:42:53;10.90;99.90
22145;DHT22;11238;48.730;11.566;2022-11-10T01:48:55;10.80;99.90
22145;DHT22;11238;48.730;11.566;2022-11-10T01:51:49;10.90;99.90
22145;DHT22;11238;48.730;11.566;2022-11-10T01:54:41;10.90;99.90
22145;DHT22;11238;48.730;11.566;2022-11-10T01:57:26;10.90;99.90
22145;DHT22;11238;48.730;11.566;2022-11-10T02:00:11;10.80;99.90
22145;DHT22;11238;48.730;11.566;2022-11-10T02:03:23;10.90;99.90
22145;DHT22;11238;48.730;11.566;2022-11-10T02:06:10;10.80;99.90
22145;DHT22;11238;48.730;11.566;2022-11-10T02:08:56;10.80;99.90
22145;DHT22;11238;48.730;11.566;2022-11-10T02:11:43;10.80;99.90
22145;DHT22;11238;48.730;11.566;2022-11-10T02:14:28;10.80;99.90
22145;DHT22;11238;48.730;11.566;2022-11-10T02:17:13;10.80;99.90
22145;DHT22;11238;48.730;11.566;2022-11-10T02:19:59;10.80;99.90
22145;DHT22;11238;48.730;11.566;2022-11-10T02:22:43;10.80;99.90
22145;DHT22;11238;48.730;11.566;2022-11-10T02:25:29;10.80;99.90
22145;DHT22;11238;48.730;11.566;2022-11-10T02:28:15;10.80;99.90
22145;DHT22;11238;48.730;11.566;2022-11-10T02:30:59;10.80;99.90
22145;DHT22;11238;48.730;11.566;2022-11-10T02:33:44;10.80;99.90
22145;DHT22;11238;48.730;11.566;2022-11-10T02:36:28;10.70;99.90
22145;DHT22;11238;48.730;11.566;2022-11-10T02:39:12;10.70;99.90
22145;DHT22;11238;48.730;11.566;2022-11-10T02:41:57;10.70;99.90
22145;DHT22;11238;48.730;11.566;2022-11-10T02:44:42;10.70;99.90
22145;DHT22;11238;48.730;11.566;2022-11-10T02:47:27;10.60;99.90
22145;DHT22;11238;48.730;11.566;2022-11-10T02:50:12;10.60;99.90
22145;DHT22;11238;48.730;11.566;2022-11-10T02:52:56;10.60;99.90
22145;DHT22;11238;48.730;11.566;2022-11-10T02:55:41;10.60;99.90
22145;DHT22;11238;48.730;11.566;2022-11-10T02:58:26;10.70;99.90
22145;DHT22;11238;48.730;11.566;2022-11-10T03:01:11;10.70;99.90
22145;DHT22;11238;48.730;11.566;2022-11-10T03:03:55;10.70;99.90
22145;DHT22;11238;48.730;11.566;2022-11-10T03:06:39;10.60;99.90
22145;DHT22;11238;48.730;11.566;2022-11-10T03:09:24;10.60;99.90
22145;DHT22;11238;48.730;11.566;2022-11-10T03:12:08;10.60;99.90
22145;DHT22;11238;48.730;11.566;2022-11-10T03:14:52;10.60;99.90
22145;DHT22;11238;48.730;11.566;2022-11-10T03:17:36;10.60;99.90
22145;DHT22;11238;48.730;11.566;2022-11-10T03:20:21;10.50;99.90
22145;DHT22;11238;48.730;11.566;2022-11-10T03:23:06;10.50;99.90
22145;DHT22;11238;48.730;11.566;2022-11-10T03:25:50;10.50;99.90
22145;DHT22;11238;48.730;11.566;2022-11-10T03:28:34;10.40;99.90
22145;DHT22;11238;48.730;11.566;2022-11-10T03:31:18;10.50;99.90
22145;DHT22;11238;48.730;11.566;2022-11-10T03:34:09;10.50;99.90
22145;DHT22;11238;48.730;11.566;2022-11-10T03:36:53;10.50;99.90
22145;DHT22;11238;48.730;11.566;2022-11-10T03:39:38;10.50;99.90
22145;DHT22;11238;48.730;11.566;2022-11-10T03:42:23;10.50;99.90
22145;DHT22;11238;48.730;11.566;2022-11-10T03:45:09;10.50;99.90
22145;DHT22;11238;48.730;11.566;2022-11-10T03:47:54;10.50;99.90
22145;DHT22;11238;48.730;11.566;2022-11-10T03:50:38;10.50;99.90
22145;DHT22;11238;48.730;11.566;2022-11-10T03:53:22;10.50;99.90
22145;DHT22;11238;48.730;11.566;2022-11-10T03:56:07;10.50;99.90
22145;DHT22;11238;48.730;11.566;2022-11-10T03:58:51;10.40;99.90
22145;DHT22;11238;48.730;11.566;2022-11-10T04:01:35;10.40;99.90
22145;DHT22;11238;48.730;11.566;2022-11-10T04:04:20;10.30;99.90
22145;DHT22;11238;48.730;11.566;2022-11-10T04:07:24;10.10;99.90
22145;DHT22;11238;48.730;11.566;2022-11-10T04:10:27;10.10;99.90
22145;DHT22;11238;48.730;11.566;2022-11-10T04:13:12;10.10;99.90
22145;DHT22;11238;48.730;11.566;2022-11-10T04:16:15;10.20;99.90
22145;DHT22;11238;48.730;11.566;2022-11-10T04:19:00;10.30;99.90
22145;DHT22;11238;48.730;11.566;2022-11-10T04:21:44;10.20;99.90
22145;DHT22;11238;48.730;11.566;2022-11-10T04:24:29;10.20;99.90
22145;DHT22;11238;48.730;11.566;2022-11-10T04:27:13;10.20;99.90
22145;DHT22;11238;48.730;11.566;2022-11-10T04:29:58;10.20;99.90
22145;DHT22;11238;48.730;11.566;2022-11-10T04:32:42;10.20;99.90
22145;DHT22;11238;48.730;11.566;2022-11-10T04:35:27;10.20;99.90
22145;DHT22;11238;48.730;11.566;2022-11-10T04:38:12;10.20;99.90
22145;DHT22;11238;48.730;11.566;2022-11-10T04:40:56;10.20;99.90
22145;DHT22;11238;48.730;11.566;2022-11-10T04:43:41;10.30;99.90
22145;DHT22;11238;48.730;11.566;2022-11-10T04:46:37;10.20;99.90
22145;DHT22;11238;48.730;11.566;2022-11-10T04:49:22;10.20;99.90
22145;DHT22;11238;48.730;11.566;2022-11-10T04:52:07;10.20;99.90
22145;DHT22;11238;48.730;11.566;2022-11-10T04:54:51;10.20;99.90
22145;DHT22;11238;48.730;11.566;2022-11-10T04:57:36;10.20;99.90
22145;DHT22;11238;48.730;11.566;2022-11-10T05:00:21;10.20;99.90
22145;DHT22;11238;48.730;11.566;2022-11-10T05:03:08;10.10;99.90
22145;DHT22;11238;48.730;11.566;2022-11-10T05:05:53;10.20;99.90
22145;DHT22;11238;48.730;11.566;2022-11-10T05:08:38;10.10;99.90
22145;DHT22;11238;48.730;11.566;2022-11-10T05:11:24;10.10;99.90
22145;DHT22;11238;48.730;11.566;2022-11-10T05:14:08;10.10;99.90
22145;DHT22;11238;48.730;11.566;2022-11-10T05:16:53;10.10;99.90
22145;DHT22;11238;48.730;11.566;2022-11-10T05:19:37;10.10;99.90
22145;DHT22;11238;48.730;11.566;2022-11-10T05:22:21;10.00;99.90
22145;DHT22;11238;48.730;11.566;2022-11-10T05:25:07;9.90;99.90
22145;DHT22;11238;48.730;11.566;2022-11-10T05:27:51;9.90;99.90
22145;DHT22;11238;48.730;11.566;2022-11-10T05:30:36;9.90;99.90
22145;DHT22;11238;48.730;11.566;2022-11-10T05:33:20;9.80;99.90
22145;DHT22;11238;48.730;11.566;2022-11-10T05:36:06;9.80;99.90
22145;DHT22;11238;48.730;11.566;2022-11-10T05:38:50;9.70;99.90
22145;DHT22;11238;48.730;11.566;2022-11-10T05:41:34;9.70;99.90
22145;DHT22;11238;48.730;11.566;2022-11-10T05:44:19;9.70;99.90
22145;DHT22;11238;48.730;11.566;2022-11-10T05:47:12;9.60;99.90
22145;DHT22;11238;48.730;11.566;2022-11-10T05:49:56;9.60;99.90
22145;DHT22;11238;48.730;11.566;2022-11-10T05:52:47;9.50;99.90
22145;DHT22;11238;48.730;11.566;2022-11-10T05:55:32;9.50;99.90
22145;DHT22;11238;48.730;11.566;2022-11-10T05:58:16;9.50;99.90
22145;DHT22;11238;48.730;11.566;2022-11-10T06:01:01;9.40;99.90
22145;DHT22;11238;48.730;11.566;2022-11-10T06:03:44;9.40;99.90
22145;DHT22;11238;48.730;11.566;2022-11-10T06:06:29;9.40;99.90
22145;DHT22;11238;48.730;11.566;2022-11-10T06:09:13;9.30;99.90
22145;DHT22;11238;48.730;11.566;2022-11-10T06:11:57;9.20;99.90
22145;DHT22;11238;48.730;11.566;2022-11-10T06:14:45;9.10;99.90
22145;DHT22;11238;48.730;11.566;2022-11-10T06:17:39;9.10;99.90
22145;DHT22;11238;48.730;11.566;2022-11-10T06:20:24;9.00;99.90
22145;DHT22;11238;48.730;11.566;2022-11-10T06:23:12;8.90;99.90
22145;DHT22;11238;48.730;11.566;2022-11-10T06:25:57;8.80;99.90
22145;DHT22;11238;48.730;11.566;2022-11-10T06:28:41;8.80;99.90
22145;DHT22;11238;48.730;11.566;2022-11-10T06:31:35;8.80;99.90
22145;DHT22;11238;48.730;11.566;2022-11-10T06:34:19;8.80;99.90
22145;DHT22;11238;48.730;11.566;2022-11-10T06:37:03;8.70;99.90
22145;DHT22;11238;48.730;11.566;2022-11-10T06:39:47;8.70;99.90
22145;DHT22;11238;48.730;11.566;2022-11-10T06:42:32;8.60;99.90
22145;DHT22;11238;48.730;11.566;2022-11-10T06:45:16;8.60;99.90
22145;DHT22;11238;48.730;11.566;2022-11-10T06:48:03;8.60;99.90
22145;DHT22;11238;48.730;11.566;2022-11-10T06:50:48;8.60;99.90
22145;DHT22;11238;48.730;11.566;2022-11-10T06:53:39;8.50;99.90
22145;DHT22;11238;48.730;11.566;2022-11-10T06:56:23;8.50;99.90
22145;DHT22;11238;48.730;11.566;2022-11-10T06:59:08;8.50;99.90
22145;DHT22;11238;48.730;11.566;2022-11-10T07:01:53;8.50;99.90
22145;DHT22;11238;48.730;11.566;2022-11-10T07:04:37;8.40;99.90
22145;DHT22;11238;48.730;11.566;2022-11-10T07:07:22;8.30;99.90
22145;DHT22;11238;48.730;11.566;2022-11-10T07:10:07;8.40;99.90
22145;DHT22;11238;48.730;11.566;2022-11-10T07:12:59;8.40;99.90
22145;DHT22;11238;48.730;11.566;2022-11-10T07:15:44;8.40;99.90
22145;DHT22;11238;48.730;11.566;2022-11-10T07:18:29;8.50;99.90
22145;DHT22;11238;48.730;11.566;2022-11-10T07:21:13;8.50;99.90
22145;DHT22;11238;48.730;11.566;2022-11-10T07:24:01;8.60;99.90
22145;DHT22;11238;48.730;11.566;2022-11-10T07:26:45;8.70;99.90
22145;DHT22;11238;48.730;11.566;2022-11-10T07:29:30;8.60;99.90
22145;DHT22;11238;48.730;11.566;2022-11-10T07:32:14;8.70;99.90
22145;DHT22;11238;48.730;11.566;2022-11-10T07:34:59;8.70;99.90
22145;DHT22;11238;48.730;11.566;2022-11-10T07:37:43;8.80;99.90
22145;DHT22;11238;48.730;11.566;2022-11-10T07:40:28;8.70;99.90
22145;DHT22;11238;48.730;11.566;2022-11-10T07:43:13;8.60;99.90
22145;DHT22;11238;48.730;11.566;2022-11-10T07:45:58;8.70;99.90
22145;DHT22;11238;48.730;11.566;2022-11-10T07:48:44;8.80;99.90
22145;DHT22;11238;48.730;11.566;2022-11-10T07:51:29;8.90;99.90
22145;DHT22;11238;48.730;11.566;2022-11-10T07:54:14;9.00;99.90
22145;DHT22;11238;48.730;11.566;2022-11-10T07:56:59;9.10;99.90
22145;DHT22;11238;48.730;11.566;2022-11-10T07:59:43;9.20;99.90
22145;DHT22;11238;48.730;11.566;2022-11-10T08:02:27;9.20;99.90
22145;DHT22;11238;48.730;11.566;2022-11-10T08:05:12;9.30;99.90
22145;DHT22;11238;48.730;11.566;2022-11-10T08:07:59;9.40;99.90
22145;DHT22;11238;48.730;11.566;2022-11-10T08:10:44;9.50;99.90
22145;DHT22;11238;48.730;11.566;2022-11-10T08:13:33;9.50;99.90
22145;DHT22;11238;48.730;11.566;2022-11-10T08:16:21;9.60;99.90
22145;DHT22;11238;48.730;11.566;2022-11-10T08:19:07;9.60;99.90
22145;DHT22;11238;48.730;11.566;2022-11-10T08:21:51;9.70;99.90
22145;DHT22;11238;48.730;11.566;2022-11-10T08:24:36;9.70;99.90
22145;DHT22;11238;48.730;11.566;2022-11-10T08:27:20;9.70;99.90
22145;DHT22;11238;48.730;11.566;2022-11-10T08:30:05;9.80;99.90
22145;DHT22;11238;48.730;11.566;2022-11-10T08:32:56;9.90;99.90
22145;DHT22;11238;48.730;11.566;2022-11-10T08:35:46;10.00;99.90
22145;DHT22;11238;48.730;11.566;2022-11-10T08:38:39;10.10;99.90
22145;DHT22;11238;48.730;11.566;2022-11-10T08:41:26;10.40;99.90
22145;DHT22;11238;48.730;11.566;2022-11-10T08:44:10;10.60;99.90
22145;DHT22;11238;48.730;11.566;2022-11-10T08:46:56;10.70;99.90
22145;DHT22;11238;48.730;11.566;2022-11-10T08:49:41;10.80;99.90
22145;DHT22;11238;48.730;11.566;2022-11-10T08:52:26;11.00;99.90
22145;DHT22;11238;48.730;11.566;2022-11-10T08:55:13;11.20;99.90
22145;DHT22;11238;48.730;11.566;2022-11-10T08:58:00;11.20;99.90
22145;DHT22;11238;48.730;11.566;2022-11-10T09:00:44;11.30;99.90
22145;DHT22;11238;48.730;11.566;2022-11-10T09:03:29;11.40;99.90
22145;DHT22;11238;48.730;11.566;2022-11-10T09:06:13;11.60;99.90
22145;DHT22;11238;48.730;11.566;2022-11-10T09:08:58;11.90;99.90
22145;DHT22;11238;48.730;11.566;2022-11-10T09:11:42;11.80;99.90
22145;DHT22;11238;48.730;11.566;2022-11-10T09:14:27;11.80;99.90
22145;DHT22;11238;48.730;11.566;2022-11-10T09:17:11;11.50;99.90
22145;DHT22;11238;48.730;11.566;2022-11-10T09:19:56;11.40;99.90
22145;DHT22;11238;48.730;11.566;2022-11-10T09:22:41;11.40;99.90
22145;DHT22;11238;48.730;11.566;2022-11-10T09:25:25;11.90;99.90
22145;DHT22;11238;48.730;11.566;2022-11-10T09:28:11;12.10;99.90
22145;DHT22;11238;48.730;11.566;2022-11-10T09:30:56;13.30;99.90
22145;DHT22;11238;48.730;11.566;2022-11-10T09:33:41;14.10;99.90
22145;DHT22;11238;48.730;11.566;2022-11-10T09:36:25;14.50;99.90
22145;DHT22;11238;48.730;11.566;2022-11-10T09:39:09;13.70;99.90
22145;DHT22;11238;48.730;11.566;2022-11-10T09:41:54;13.50;99.90
22145;DHT22;11238;48.730;11.566;2022-11-10T09:44:49;13.00;99.90
22145;DHT22;11238;48.730;11.566;2022-11-10T09:47:54;12.70;99.90
22145;DHT22;11238;48.730;11.566;2022-11-10T09:51:07;12.40;99.90
22145;DHT22;11238;48.730;11.566;2022-11-10T09:54:43;12.10;99.90
22145;DHT22;11238;48.730;11.566;2022-11-10T09:57:03;11.90;99.90
22145;DHT22;11238;48.730;11.566;2022-11-10T09:59:49;12.00;99.90
22145;DHT22;11238;48.730;11.566;2022-11-10T10:02:41;12.20;99.90
22145;DHT22;11238;48.730;11.566;2022-11-10T10:18:17;12.00;99.90
22145;DHT22;11238;48.730;11.566;2022-11-10T10:24:15;12.30;99.90
22145;DHT22;11238;48.730;11.566;2022-11-10T10:27:04;12.40;99.90
22145;DHT22;11238;48.730;11.566;2022-11-10T10:29:49;12.40;99.90
22145;DHT22;11238;48.730;11.566;2022-11-10T10:35:42;12.20;99.90
22145;DHT22;11238;48.730;11.566;2022-11-10T10:38:33;11.90;99.90
22145;DHT22;11238;48.730;11.566;2022-11-10T10:41:30;11.70;99.90
22145;DHT22;11238;48.730;11.566;2022-11-10T10:44:18;11.60;99.90
22145;DHT22;11238;48.730;11.566;2022-11-10T10:47:02;11.60;99.90
22145;DHT22;11238;48.730;11.566;2022-11-10T10:49:49;11.80;99.90
22145;DHT22;11238;48.730;11.566;2022-11-10T10:52:33;12.10;99.90
22145;DHT22;11238;48.730;11.566;2022-11-10T10:55:18;12.40;99.90
22145;DHT22;11238;48.730;11.566;2022-11-10T10:58:25;12.50;99.90
22145;DHT22;11238;48.730;11.566;2022-11-10T11:03:58;12.80;99.90
22145;DHT22;11238;48.730;11.566;2022-11-10T11:06:57;13.20;99.90
22145;DHT22;11238;48.730;11.566;2022-11-10T11:09:43;13.30;99.90
22145;DHT22;11238;48.730;11.566;2022-11-10T11:12:29;13.50;99.90
22145;DHT22;11238;48.730;11.566;2022-11-10T11:15:35;13.40;99.90
22145;DHT22;11238;48.730;11.566;2022-11-10T11:18:19;13.40;99.90
22145;DHT22;11238;48.730;11.566;2022-11-10T11:21:22;13.50;99.90
22145;DHT22;11238;48.730;11.566;2022-11-10T11:24:36;13.70;99.90
22145;DHT22;11238;48.730;11.566;2022-11-10T11:27:52;13.70;99.90
22145;DHT22;11238;48.730;11.566;2022-11-10T11:33:44;14.20;99.90
22145;DHT22;11238;48.730;11.566;2022-11-10T11:36:55;13.80;99.90
22145;DHT22;11238;48.730;11.566;2022-11-10T11:42:47;14.00;99.90
22145;DHT22;11238;48.730;11.566;2022-11-10T11:49:18;14.30;99.90
22145;DHT22;11238;48.730;11.566;2022-11-10T11:52:21;14.30;99.90
22145;DHT22;11238;48.730;11.566;2022-11-10T12:07:26;14.80;99.90
22145;DHT22;11238;48.730;11.566;2022-11-10T12:13:45;14.80;99.90
22145;DHT22;11238;48.730;11.566;2022-11-10T12:16:35;14.70;99.90
22145;DHT22;11238;48.730;11.566;2022-11-10T12:19:32;14.70;99.90
22145;DHT22;11238;48.730;11.566;2022-11-10T12:22:46;14.90;99.90
22145;DHT22;11238;48.730;11.566;2022-11-10T12:26:18;15.00;99.90
22145;DHT22;11238;48.730;11.566;2022-11-10T12:29:48;15.00;99.90
22145;DHT22;11238;48.730;11.566;2022-11-10T12:33:13;14.80;99.90
22145;DHT22;11238;48.730;11.566;2022-11-10T12:35:50;14.80;99.90
22145;DHT22;11238;48.730;11.566;2022-11-10T12:38:52;14.70;99.90
22145;DHT22;11238;48.730;11.566;2022-11-10T12:41:44;14.50;99.90
22145;DHT22;11238;48.730;11.566;2022-11-10T12:44:42;14.60;99.00
22145;DHT22;11238;48.730;11.566;2022-11-10T12:47:40;14.90;99.60
22145;DHT22;11238;48.730;11.566;2022-11-10T12:51:28;15.20;99.90
22145;DHT22;11238;48.730;11.566;2022-11-10T12:53:52;15.10;99.20
22145;DHT22;11238;48.730;11.566;2022-11-10T12:57:39;14.80;98.00
22145;DHT22;11238;48.730;11.566;2022-11-10T13:00:01;14.80;99.80
22145;DHT22;11238;48.730;11.566;2022-11-10T13:02:48;14.70;99.30
22145;DHT22;11238;48.730;11.566;2022-11-10T13:05:41;14.80;99.40
22145;DHT22;11238;48.730;11.566;2022-11-10T13:08:33;15.00;99.10
22145;DHT22;11238;48.730;11.566;2022-11-10T13:11:25;14.90;99.10
22145;DHT22;11238;48.730;11.566;2022-11-10T13:14:25;14.70;99.90
22145;DHT22;11238;48.730;11.566;2022-11-10T13:20:49;14.60;99.90
22145;DHT22;11238;48.730;11.566;2022-11-10T13:32:32;14.50;98.40
22145;DHT22;11238;48.730;11.566;2022-11-10T13:38:34;14.60;99.50
22145;DHT22;11238;48.730;11.566;2022-11-10T13:41:22;14.90;99.90
22145;DHT22;11238;48.730;11.566;2022-11-10T13:59:21;14.20;99.90
22145;DHT22;11238;48.730;11.566;2022-11-10T14:08:19;14.00;99.90
22145;DHT22;11238;48.730;11.566;2022-11-10T14:11:17;13.90;99.90
22145;DHT22;11238;48.730;11.566;2022-11-10T14:14:26;13.70;99.80
22145;DHT22;11238;48.730;11.566;2022-11-10T14:17:26;13.60;99.80
22145;DHT22;11238;48.730;11.566;2022-11-10T14:20:33;13.60;99.90
22145;DHT22;11238;48.730;11.566;2022-11-10T14:23:41;13.50;99.90
22145;DHT22;11238;48.730;11.566;2022-11-10T14:26:51;13.40;99.90
22145;DHT22;11238;48.730;11.566;2022-11-10T14:29:37;13.30;99.90
22145;DHT22;11238;48.730;11.566;2022-11-10T14:32:23;13.30;99.90
22145;DHT22;11238;48.730;11.566;2022-11-10T14:35:20;13.20;99.90
22145;DHT22;11238;48.730;11.566;2022-11-10T14:38:12;13.10;99.90
22145;DHT22;11238;48.730;11.566;2022-11-10T14:41:03;13.10;99.90
22145;DHT22;11238;48.730;11.566;2022-11-10T14:44:12;13.00;99.90
22145;DHT22;11238;48.730;11.566;2022-11-10T14:47:27;13.00;99.90
22145;DHT22;11238;48.730;11.566;2022-11-10T14:50:23;13.10;99.90
22145;DHT22;11238;48.730;11.566;2022-11-10T14:53:13;13.10;99.90
22145;DHT22;11238;48.730;11.566;2022-11-10T14:56:02;13.10;99.90
22145;DHT22;11238;48.730;11.566;2022-11-10T14:58:48;13.20;99.90
22145;DHT22;11238;48.730;11.566;2022-11-10T15:01:38;13.10;99.90
22145;DHT22;11238;48.730;11.566;2022-11-10T15:04:31;13.10;99.90
22145;DHT22;11238;48.730;11.566;2022-11-10T15:07:17;13.10;99.90
22145;DHT22;11238;48.730;11.566;2022-11-10T15:10:23;13.10;99.90
22145;DHT22;11238;48.730;11.566;2022-11-10T15:16:21;13.00;99.90
22145;DHT22;11238;48.730;11.566;2022-11-10T15:19:31;13.10;99.90
22145;DHT22;11238;48.730;11.566;2022-11-10T15:22:28;12.90;99.90
22145;DHT22;11238;48.730;11.566;2022-11-10T15:25:16;12.80;99.90
22145;DHT22;11238;48.730;11.566;2022-11-10T15:30:54;12.60;99.90
22145;DHT22;11238;48.730;11.566;2022-11-10T15:33:46;12.60;99.90
22145;DHT22;11238;48.730;11.566;2022-11-10T15:36:33;12.50;99.90
22145;DHT22;11238;48.730;11.566;2022-11-10T15:39:22;12.40;99.90
22145;DHT22;11238;48.730;11.566;2022-11-10T15:42:19;12.30;99.90
22145;DHT22;11238;48.730;11.566;2022-11-10T15:45:05;12.20;99.90
22145;DHT22;11238;48.730;11.566;2022-11-10T15:47:49;12.10;99.90
22145;DHT22;11238;48.730;11.566;2022-11-10T15:50:34;11.90;99.90
22145;DHT22;11238;48.730;11.566;2022-11-10T15:53:39;11.80;99.90
22145;DHT22;11238;48.730;11.566;2022-11-10T15:56:24;11.70;99.90
22145;DHT22;11238;48.730;11.566;2022-11-10T15:59:10;11.70;99.90
22145;DHT22;11238;48.730;11.566;2022-11-10T16:01:54;11.50;99.90
22145;DHT22;11238;48.730;11.566;2022-11-10T16:04:39;11.40;99.90
22145;DHT22;11238;48.730;11.566;2022-11-10T16:07:23;11.30;99.90
22145;DHT22;11238;48.730;11.566;2022-11-10T16:10:08;11.20;99.90
22145;DHT22;11238;48.730;11.566;2022-11-10T16:12:53;11.20;99.90
22145;DHT22;11238;48.730;11.566;2022-11-10T16:15:38;11.10;99.90
22145;DHT22;11238;48.730;11.566;2022-11-10T16:18:26;11.00;99.90
22145;DHT22;11238;48.730;11.566;2022-11-10T16:21:13;11.00;99.90
22145;DHT22;11238;48.730;11.566;2022-11-10T16:23:58;11.00;99.90
22145;DHT22;11238;48.730;11.566;2022-11-10T16:26:43;10.90;99.90
22145;DHT22;11238;48.730;11.566;2022-11-10T16:29:27;10.80;99.90
22145;DHT22;11238;48.730;11.566;2022-11-10T16:32:13;10.70;99.90
22145;DHT22;11238;48.730;11.566;2022-11-10T16:34:58;10.70;99.90
22145;DHT22;11238;48.730;11.566;2022-11-10T16:37:42;10.60;99.90
22145;DHT22;11238;48.730;11.566;2022-11-10T16:40:26;10.60;99.90
22145;DHT22;11238;48.730;11.566;2022-11-10T16:43:16;10.50;99.90
22145;DHT22;11238;48.730;11.566;2022-11-10T16:46:03;10.50;99.90
22145;DHT22;11238;48.730;11.566;2022-11-10T16:48:52;10.40;99.90
22145;DHT22;11238;48.730;11.566;2022-11-10T16:51:42;10.30;99.90
22145;DHT22;11238;48.730;11.566;2022-11-10T16:54:27;10.30;99.90
22145;DHT22;11238;48.730;11.566;2022-11-10T16:57:12;10.20;99.90
22145;DHT22;11238;48.730;11.566;2022-11-10T16:59:57;10.10;99.90
22145;DHT22;11238;48.730;11.566;2022-11-10T17:02:43;9.70;99.90
22145;DHT22;11238;48.730;11.566;2022-11-10T17:05:28;9.30;99.90
22145;DHT22;11238;48.730;11.566;2022-11-10T17:08:23;9.10;99.90
22145;DHT22;11238;48.730;11.566;2022-11-10T17:11:09;8.90;99.90
22145;DHT22;11238;48.730;11.566;2022-11-10T17:13:54;8.70;99.90
22145;DHT22;11238;48.730;11.566;2022-11-10T17:16:40;8.70;99.90
22145;DHT22;11238;48.730;11.566;2022-11-10T17:19:26;8.70;99.90
22145;DHT22;11238;48.730;11.566;2022-11-10T17:22:17;8.70;99.90
22145;DHT22;11238;48.730;11.566;2022-11-10T17:25:02;8.70;99.90
22145;DHT22;11238;48.730;11.566;2022-11-10T17:27:47;8.50;99.90
22145;DHT22;11238;48.730;11.566;2022-11-10T17:30:31;8.40;99.90
22145;DHT22;11238;48.730;11.566;2022-11-10T17:33:16;8.50;99.90
22145;DHT22;11238;48.730;11.566;2022-11-10T17:36:02;8.40;99.90
22145;DHT22;11238;48.730;11.566;2022-11-10T17:38:49;8.40;99.90
22145;DHT22;11238;48.730;11.566;2022-11-10T17:45:42;8.50;99.90
22145;DHT22;11238;48.730;11.566;2022-11-10T17:48:27;8.40;99.90
22145;DHT22;11238;48.730;11.566;2022-11-10T17:51:17;8.40;99.90
22145;DHT22;11238;48.730;11.566;2022-11-10T17:54:02;8.50;99.90
22145;DHT22;11238;48.730;11.566;2022-11-10T17:56:49;8.40;99.90
22145;DHT22;11238;48.730;11.566;2022-11-10T17:59:33;8.40;99.90
22145;DHT22;11238;48.730;11.566;2022-11-10T18:02:17;8.40;99.90
22145;DHT22;11238;48.730;11.566;2022-11-10T18:05:02;8.40;99.90
22145;DHT22;11238;48.730;11.566;2022-11-10T18:07:50;8.40;99.90
22145;DHT22;11238;48.730;11.566;2022-11-10T18:10:35;8.30;99.90
22145;DHT22;11238;48.730;11.566;2022-11-10T18:13:22;8.40;99.90
22145;DHT22;11238;48.730;11.566;2022-11-10T18:16:06;8.40;99.90
22145;DHT22;11238;48.730;11.566;2022-11-10T18:18:53;8.50;99.90
22145;DHT22;11238;48.730;11.566;2022-11-10T18:21:38;8.50;99.90
22145;DHT22;11238;48.730;11.566;2022-11-10T18:24:22;8.50;99.90
22145;DHT22;11238;48.730;11.566;2022-11-10T18:27:07;8.40;99.90
22145;DHT22;11238;48.730;11.566;2022-11-10T18:29:52;8.40;99.90
22145;DHT22;11238;48.730;11.566;2022-11-10T18:32:36;8.30;99.90
22145;DHT22;11238;48.730;11.566;2022-11-10T18:35:21;8.20;99.90
22145;DHT22;11238;48.730;11.566;2022-11-10T18:38:07;8.10;99.90
22145;DHT22;11238;48.730;11.566;2022-11-10T18:40:52;8.10;99.90
22145;DHT22;11238;48.730;11.566;2022-11-10T18:43:36;8.00;99.90
22145;DHT22;11238;48.730;11.566;2022-11-10T18:46:21;8.00;99.90
22145;DHT22;11238;48.730;11.566;2022-11-10T18:49:05;8.00;99.90
22145;DHT22;11238;48.730;11.566;2022-11-10T18:51:53;8.00;99.90
22145;DHT22;11238;48.730;11.566;2022-11-10T18:54:37;7.90;99.90
22145;DHT22;11238;48.730;11.566;2022-11-10T18:57:21;7.90;99.90
22145;DHT22;11238;48.730;11.566;2022-11-10T19:00:06;7.90;99.90
22145;DHT22;11238;48.730;11.566;2022-11-10T19:02:51;7.90;99.90
22145;DHT22;11238;48.730;11.566;2022-11-10T19:05:34;7.90;99.90
22145;DHT22;11238;48.730;11.566;2022-11-10T19:08:19;7.90;99.90